Squaw Valley USA, California
Current Conditions -  °F | °C
As of 5:35 AM on Friday 28 Nov 2014 (Local Time) from KTRK Reporting Station
Clear Clear  
Wind Chill: 41°   Ceiling: Unl
Heat Index: 46°   Visibility: 10mi
Dew Point: -11°   Wind: 12mph
Humidity: 9%   Direction: 190°S
Pressure: 30.07"   Gusts: 20mph
Location:  39.2°N, 120.24°W
Report Text: KTRK 281335Z AUTO 19010G17KT 140V210 10SM CLR 08/M24 A3007 RMK AO2
Loading
Personal Weather Stations






























Interactive Weather Map New forecast layout! Learn more

10-Day Weather Forecast

Advertisements
Track Severe Weather on mobile